Time;durP1;ratioP1;P1;durP2;ratioP2;P2;SDS_P1;SDS_P2;PMS_P1;PMS_P2;Temp;Humidity;BMP_temperature;BMP_pressure;BME280_temperature;BME280_humidity;BME280_pressure;Samples;Min_cycle;Max_cycle;Signal;HPM_P1;HPM_P2
2022/05/19 00:02:13;;;;;;;44.70;27.08;;;13.70;99.90;;;;;;5054056;28;20041;-79
2022/05/19 00:04:40;;;;;;;45.10;28.85;;;13.60;99.90;;;;;;5053378;28;20041;-78
2022/05/19 00:07:07;;;;;;;42.45;28.55;;;13.60;99.90;;;;;;5054587;28;20105;-79
2022/05/19 00:09:33;;;;;;;46.95;29.48;;;13.50;99.90;;;;;;5054169;28;20068;-79
2022/05/19 00:12:01;;;;;;;42.17;28.92;;;13.50;99.90;;;;;;5053902;28;20124;-80
2022/05/19 00:14:27;;;;;;;45.25;27.85;;;13.50;99.90;;;;;;5054510;28;20469;-79
2022/05/19 00:16:56;;;;;;;48.15;27.63;;;13.40;99.90;;;;;;5051855;28;20405;-79
2022/05/19 00:19:22;;;;;;;56.92;34.30;;;13.50;99.90;;;;;;5069878;28;20124;-79
2022/05/19 00:21:49;;;;;;;56.35;36.28;;;13.50;99.90;;;;;;5054314;28;20068;-78
2022/05/19 00:24:15;;;;;;;58.67;35.50;;;13.60;99.90;;;;;;5054685;28;20041;-79
2022/05/19 00:26:41;;;;;;;52.30;31.48;;;13.80;99.90;;;;;;5054358;28;20409;-79
2022/05/19 00:29:07;;;;;;;54.20;32.65;;;13.90;99.90;;;;;;5054771;28;20042;-79
2022/05/19 00:31:33;;;;;;;58.42;34.25;;;13.90;99.90;;;;;;5054672;28;20056;-79
2022/05/19 00:33:59;;;;;;;55.25;35.78;;;13.90;99.90;;;;;;5054675;28;20045;-79
2022/05/19 00:36:25;;;;;;;58.63;36.45;;;14.00;99.90;;;;;;5054221;28;20041;-79
2022/05/19 00:38:51;;;;;;;61.03;38.92;;;14.00;99.90;;;;;;5054543;28;20155;-79
2022/05/19 00:41:17;;;;;;;74.85;42.50;;;14.00;99.90;;;;;;5054535;28;20041;-78
2022/05/19 00:43:46;;;;;;;68.63;41.97;;;14.00;99.90;;;;;;5057123;28;20041;-78
2022/05/19 00:46:19;;;;;;;70.95;40.78;;;14.00;99.90;;;;;;5056830;28;20048;-79
2022/05/19 00:49:02;;;;;;;71.72;41.83;;;13.90;99.90;;;;;;5058472;28;20056;-79
2022/05/19 00:51:36;;;;;;;77.95;46.22;;;13.90;99.90;;;;;;5058613;28;20040;-79
2022/05/19 00:54:07;;;;;;;84.93;50.67;;;13.80;99.90;;;;;;5057851;28;20037;-79
2022/05/19 00:56:40;;;;;;;83.80;50.95;;;13.90;99.90;;;;;;5056782;28;20496;-79
2022/05/19 00:59:10;;;;;;;88.38;51.75;;;13.90;99.90;;;;;;5058147;28;20048;-79
2022/05/19 01:01:39;;;;;;;81.45;51.72;;;13.90;99.90;;;;;;5057641;28;20451;-78
2022/05/19 01:04:25;;;;;;;80.10;50.65;;;13.80;99.90;;;;;;5055567;28;20088;-79
2022/05/19 01:06:55;;;;;;;84.93;52.33;;;13.80;99.90;;;;;;5057015;28;20381;-79
2022/05/19 01:09:21;;;;;;;88.70;53.65;;;13.80;99.90;;;;;;5057325;28;20288;-78
2022/05/19 01:11:52;;;;;;;86.25;53.00;;;13.80;99.90;;;;;;5057271;28;20045;-77
2022/05/19 01:14:17;;;;;;;91.93;54.22;;;13.70;99.90;;;;;;5057136;28;20493;-78
2022/05/19 01:16:43;;;;;;;89.90;55.38;;;13.70;99.90;;;;;;5055818;28;20051;-79
2022/05/19 01:19:40;;;;;;;110.50;59.35;;;13.70;99.90;;;;;;5057159;28;20076;-79
2022/05/19 01:22:17;;;;;;;95.15;57.83;;;13.80;99.90;;;;;;5057212;28;20073;-78
2022/05/19 01:25:00;;;;;;;97.90;60.45;;;13.80;99.90;;;;;;5057104;28;20045;-78
2022/05/19 01:27:26;;;;;;;91.57;56.15;;;13.90;99.90;;;;;;5057006;28;20052;-78
2022/05/19 01:29:54;;;;;;;102.88;61.38;;;13.90;99.90;;;;;;5056526;28;20060;-79
2022/05/19 01:32:28;;;;;;;108.57;60.63;;;13.90;99.90;;;;;;5056467;28;20056;-79
2022/05/19 01:34:54;;;;;;;98.88;59.00;;;13.80;99.90;;;;;;5056817;28;20036;-78
2022/05/19 01:37:20;;;;;;;100.38;57.88;;;13.90;99.90;;;;;;5056939;28;20115;-79
2022/05/19 01:39:49;;;;;;;96.18;59.33;;;13.80;99.90;;;;;;5055934;28;20071;-79
2022/05/19 01:42:34;;;;;;;103.65;59.88;;;13.70;99.90;;;;;;5056596;28;20044;-79
2022/05/19 01:45:06;;;;;;;96.25;59.80;;;13.60;99.90;;;;;;5039180;28;20044;-79
2022/05/19 01:47:45;;;;;;;108.85;61.05;;;13.60;99.90;;;;;;5056664;28;20049;-78
2022/05/19 01:50:19;;;;;;;102.53;63.03;;;13.50;99.90;;;;;;5056571;28;20045;-79
2022/05/19 01:53:08;;;;;;;99.47;61.92;;;13.50;99.90;;;;;;5055063;28;20055;-79
2022/05/19 01:55:46;;;;;;;116.18;68.18;;;13.40;99.90;;;;;;5056094;28;20045;-78
2022/05/19 01:58:25;;;;;;;122.05;67.90;;;13.40;99.90;;;;;;5056666;28;20088;-79
2022/05/19 02:00:55;;;;;;;128.00;75.18;;;13.40;99.90;;;;;;5086767;22;20060;-76
2022/05/19 02:03:47;;;;;;;133.00;77.13;;;13.40;99.90;;;;;;5052602;28;20049;-77
2022/05/19 02:06:31;;;;;;;129.65;78.15;;;13.40;99.90;;;;;;5037901;28;20037;-77
2022/05/19 02:09:02;;;;;;;137.68;80.07;;;13.40;99.90;;;;;;5054176;28;20048;-77
2022/05/19 02:11:31;;;;;;;139.50;80.47;;;13.30;99.90;;;;;;5054186;28;20438;-77
2022/05/19 02:14:02;;;;;;;144.35;87.38;;;13.30;99.90;;;;;;5054136;28;20037;-77
2022/05/19 02:16:30;;;;;;;158.65;93.80;;;13.30;99.90;;;;;;5053948;28;20076;-77
2022/05/19 02:18:57;;;;;;;163.00;95.03;;;13.30;99.90;;;;;;5054007;28;20043;-77
2022/05/19 02:21:24;;;;;;;165.77;97.20;;;13.30;99.90;;;;;;5054016;28;20041;-77
2022/05/19 02:23:50;;;;;;;177.05;99.30;;;13.30;99.90;;;;;;5053915;28;20040;-76
2022/05/19 02:26:15;;;;;;;176.30;100.95;;;13.30;99.90;;;;;;5053904;28;20440;-77
2022/05/19 02:28:56;;;;;;;173.50;101.57;;;13.30;99.90;;;;;;5053839;28;20405;-77
2022/05/19 02:31:22;;;;;;;183.02;103.20;;;13.30;99.90;;;;;;5053485;28;20102;-77
2022/05/19 02:33:48;;;;;;;197.88;109.85;;;13.30;99.90;;;;;;5053121;28;20420;-76
2022/05/19 02:36:13;;;;;;;197.48;111.80;;;13.40;99.90;;;;;;5053791;28;20067;-76
2022/05/19 02:38:39;;;;;;;197.00;110.38;;;13.40;99.90;;;;;;5053759;28;20041;-77
2022/05/19 02:41:05;;;;;;;216.20;116.25;;;13.40;99.90;;;;;;5053252;28;20500;-76
2022/05/19 02:43:31;;;;;;;206.68;117.10;;;13.40;99.90;;;;;;5053234;28;20559;-76
2022/05/19 02:45:56;;;;;;;226.73;122.28;;;13.40;99.90;;;;;;5053400;28;20045;-77
2022/05/19 02:48:23;;;;;;;224.35;122.57;;;13.50;99.90;;;;;;5053600;28;20052;-76
2022/05/19 02:50:50;;;;;;;232.10;125.43;;;13.50;99.90;;;;;;5053395;28;20401;-76
2022/05/19 02:53:17;;;;;;;228.25;128.63;;;13.50;99.90;;;;;;5052943;28;20074;-77
2022/05/19 02:55:42;;;;;;;238.52;129.18;;;13.60;99.90;;;;;;5051906;28;20076;-76
2022/05/19 02:58:09;;;;;;;238.13;127.30;;;13.70;99.90;;;;;;5053535;28;20045;-76
2022/05/19 03:00:35;;;;;;;237.45;127.47;;;13.60;99.90;;;;;;5052684;28;20069;-76
2022/05/19 03:03:01;;;;;;;240.18;131.35;;;13.70;99.90;;;;;;5053383;28;20508;-77
2022/05/19 03:05:30;;;;;;;242.05;127.00;;;13.60;99.90;;;;;;5052454;28;20118;-76
2022/05/19 03:07:56;;;;;;;243.70;127.10;;;13.60;99.90;;;;;;5053046;28;20119;-77
2022/05/19 03:10:22;;;;;;;246.40;130.65;;;13.60;99.90;;;;;;5053216;28;20107;-77
2022/05/19 03:12:48;;;;;;;250.48;129.32;;;13.60;99.90;;;;;;5052989;28;20045;-77
2022/05/19 03:15:14;;;;;;;232.48;127.97;;;13.70;99.90;;;;;;5052394;28;20055;-76
2022/05/19 03:17:40;;;;;;;263.60;134.82;;;13.70;99.90;;;;;;5052480;28;20544;-77
2022/05/19 03:20:06;;;;;;;242.25;132.88;;;13.60;99.90;;;;;;5053064;28;20489;-77
2022/05/19 03:22:33;;;;;;;248.55;133.05;;;13.60;99.90;;;;;;5052457;28;20076;-77
2022/05/19 03:24:58;;;;;;;235.95;131.07;;;13.60;99.90;;;;;;5052295;28;20071;-77
2022/05/19 03:27:24;;;;;;;238.45;124.82;;;13.60;99.90;;;;;;5053035;28;20083;-76
2022/05/19 03:29:50;;;;;;;255.38;131.38;;;13.50;99.90;;;;;;5052576;28;20045;-76
2022/05/19 03:32:16;;;;;;;252.25;131.20;;;13.60;99.90;;;;;;5052785;28;20549;-77
2022/05/19 03:34:42;;;;;;;254.70;130.57;;;13.60;99.90;;;;;;5052694;28;20033;-77
2022/05/19 03:37:08;;;;;;;258.95;130.00;;;13.60;99.90;;;;;;5052583;28;20102;-77
2022/05/19 03:39:36;;;;;;;241.65;128.15;;;13.70;99.90;;;;;;5052786;28;20554;-76
2022/05/19 03:42:02;;;;;;;240.27;130.77;;;13.70;99.90;;;;;;5051435;28;20041;-77
2022/05/19 03:44:28;;;;;;;233.90;126.43;;;13.70;99.90;;;;;;5052152;28;20507;-76
2022/05/19 03:46:53;;;;;;;232.55;122.00;;;13.70;99.90;;;;;;5052867;28;20079;-76
2022/05/19 03:49:19;;;;;;;224.75;118.95;;;13.80;99.90;;;;;;5052940;28;20120;-77
2022/05/19 03:51:45;;;;;;;195.98;111.40;;;13.90;99.90;;;;;;5052430;28;20045;-77
2022/05/19 03:54:11;;;;;;;198.88;113.03;;;13.80;99.90;;;;;;5052199;28;20037;-77
2022/05/19 03:56:36;;;;;;;199.70;112.50;;;13.90;99.90;;;;;;5052317;28;20461;-77
2022/05/19 03:59:02;;;;;;;188.77;108.43;;;13.90;99.90;;;;;;5052570;28;20428;-77
2022/05/19 04:01:28;;;;;;;186.35;108.78;;;14.00;99.90;;;;;;5052443;28;20111;-76
2022/05/19 04:03:54;;;;;;;173.80;102.78;;;14.10;99.90;;;;;;5051893;28;20037;-77
2022/05/19 04:06:20;;;;;;;177.75;102.13;;;14.10;99.90;;;;;;5050847;28;20126;-77
2022/05/19 04:08:46;;;;;;;158.88;99.22;;;14.20;99.90;;;;;;5052356;28;20041;-77
2022/05/19 04:11:12;;;;;;;169.65;101.15;;;14.30;99.90;;;;;;5052068;28;20083;-77
2022/05/19 04:13:37;;;;;;;156.68;96.50;;;14.30;99.90;;;;;;5051935;28;20033;-76
2022/05/19 04:16:03;;;;;;;149.85;92.15;;;14.30;99.90;;;;;;5052137;28;20049;-77
2022/05/19 04:18:29;;;;;;;149.95;92.95;;;14.40;99.90;;;;;;5056294;28;20132;-77
2022/05/19 04:20:55;;;;;;;143.50;87.50;;;14.40;99.90;;;;;;5056269;28;20066;-77
2022/05/19 04:23:21;;;;;;;145.77;85.85;;;14.50;99.90;;;;;;5055628;28;20045;-76
2022/05/19 04:25:47;;;;;;;128.40;80.07;;;14.60;99.90;;;;;;5055629;28;20059;-76
2022/05/19 04:28:13;;;;;;;121.22;80.43;;;14.60;99.90;;;;;;5054211;28;20128;-77
2022/05/19 04:30:41;;;;;;;120.75;77.57;;;14.70;99.90;;;;;;5055424;28;20047;-77
2022/05/19 04:33:07;;;;;;;105.18;73.07;;;14.80;99.90;;;;;;5055740;28;20047;-77
2022/05/19 04:35:32;;;;;;;114.35;76.03;;;14.90;99.90;;;;;;5055442;28;20045;-74
2022/05/19 04:38:00;;;;;;;117.50;71.30;;;14.90;99.90;;;;;;5055311;28;20066;-74
2022/05/19 04:40:27;;;;;;;95.80;66.15;;;15.20;99.90;;;;;;5055463;28;20183;-77
2022/05/19 04:42:55;;;;;;;96.57;64.90;;;15.30;99.90;;;;;;5055014;28;20060;-77
2022/05/19 04:45:21;;;;;;;94.00;61.95;;;15.50;99.90;;;;;;5055464;28;20056;-77
2022/05/19 04:47:47;;;;;;;92.90;60.13;;;15.60;99.90;;;;;;5055287;28;20485;-77
2022/05/19 04:50:13;;;;;;;93.93;61.42;;;15.70;99.90;;;;;;5055071;28;20041;-77
2022/05/19 04:52:39;;;;;;;88.82;58.13;;;15.90;99.90;;;;;;5055257;28;20488;-77
2022/05/19 04:55:09;;;;;;;80.40;54.45;;;16.00;99.90;;;;;;5055071;28;20072;-77
2022/05/19 04:57:35;;;;;;;80.90;55.75;;;16.20;99.90;;;;;;5055015;28;20138;-77
2022/05/19 05:00:00;;;;;;;85.38;56.00;;;16.50;99.90;;;;;;5054990;28;20081;-77
2022/05/19 05:02:26;;;;;;;75.28;53.60;;;16.60;99.90;;;;;;5055215;28;20077;-77
2022/05/19 05:04:51;;;;;;;80.85;55.03;;;16.60;99.90;;;;;;5054875;28;20048;-77
2022/05/19 05:07:17;;;;;;;73.65;51.03;;;16.70;99.90;;;;;;5054953;28;20459;-77
2022/05/19 05:09:43;;;;;;;77.22;51.90;;;16.70;99.90;;;;;;5051126;28;20087;-77
2022/05/19 05:12:10;;;;;;;76.85;53.47;;;16.80;99.90;;;;;;5051572;28;20131;-77
2022/05/19 05:14:38;;;;;;;71.43;51.28;;;16.80;99.90;;;;;;5051640;28;20131;-77
2022/05/19 05:17:03;;;;;;;72.65;49.58;;;16.80;99.90;;;;;;5051626;28;20049;-77
2022/05/19 05:19:29;;;;;;;65.18;47.10;;;16.80;99.90;;;;;;5051212;28;20052;-77
2022/05/19 05:21:57;;;;;;;70.43;48.75;;;17.00;99.90;;;;;;5050916;28;20041;-77
2022/05/19 05:24:23;;;;;;;65.43;46.92;;;17.20;99.90;;;;;;5051727;28;20049;-77
2022/05/19 05:26:48;;;;;;;57.85;38.13;;;17.40;99.90;;;;;;5051309;28;20157;-77
2022/05/19 05:29:14;;;;;;;49.58;37.25;;;17.60;99.90;;;;;;5050654;28;20036;-77
2022/05/19 05:31:40;;;;;;;51.00;36.50;;;18.00;99.90;;;;;;5051327;28;20103;-77
2022/05/19 05:34:06;;;;;;;47.42;34.40;;;18.50;99.90;;;;;;5054322;28;20041;-77
2022/05/19 05:36:31;;;;;;;45.40;32.95;;;19.20;99.90;;;;;;5054454;28;20041;-77
2022/05/19 05:38:57;;;;;;;47.50;32.25;;;19.70;99.90;;;;;;5054395;28;20127;-77
2022/05/19 05:41:23;;;;;;;43.50;31.08;;;20.00;99.90;;;;;;5054064;28;20076;-78
2022/05/19 05:43:49;;;;;;;41.85;30.67;;;20.20;99.90;;;;;;5054438;28;20047;-77
2022/05/19 05:46:15;;;;;;;36.25;27.10;;;20.10;99.90;;;;;;5054112;28;20120;-77
2022/05/19 05:48:43;;;;;;;41.47;28.48;;;20.20;99.90;;;;;;5054194;28;20048;-77
2022/05/19 05:51:10;;;;;;;40.28;27.92;;;20.20;99.90;;;;;;5054214;28;20084;-77
2022/05/19 05:53:37;;;;;;;38.60;27.02;;;20.20;99.90;;;;;;5054193;28;20558;-77
2022/05/19 05:56:04;;;;;;;37.42;26.52;;;20.60;99.90;;;;;;5053814;28;20044;-77
2022/05/19 05:58:30;;;;;;;33.75;24.70;;;20.70;99.90;;;;;;5053112;28;20041;-78
2022/05/19 06:00:56;;;;;;;34.58;24.92;;;21.00;99.90;;;;;;5052361;28;20063;-77
2022/05/19 06:03:22;;;;;;;28.13;20.40;;;21.40;99.90;;;;;;5053987;28;20048;-78
2022/05/19 06:05:47;;;;;;;29.30;19.25;;;22.00;99.90;;;;;;5053984;28;20094;-77
2022/05/19 06:08:13;;;;;;;28.13;18.48;;;21.90;99.90;;;;;;5053740;28;20049;-77
2022/05/19 06:10:38;;;;;;;22.10;16.63;;;21.70;99.90;;;;;;5053566;28;20111;-77
2022/05/19 06:13:05;;;;;;;25.75;16.15;;;21.70;99.90;;;;;;5054004;28;20504;-77
2022/05/19 06:15:30;;;;;;;23.52;15.73;;;21.90;99.90;;;;;;5053570;28;20067;-77
2022/05/19 06:17:56;;;;;;;27.60;16.48;;;22.20;99.90;;;;;;5053676;28;20563;-77
2022/05/19 06:20:23;;;;;;;20.13;14.88;;;22.60;99.90;;;;;;5053643;28;20055;-77
2022/05/19 06:22:49;;;;;;;22.48;16.00;;;22.90;99.90;;;;;;5053652;28;20072;-77
2022/05/19 06:25:19;;;;;;;24.10;16.67;;;23.00;99.90;;;;;;5053357;28;20161;-77
2022/05/19 06:27:45;;;;;;;20.42;15.48;;;23.40;98.40;;;;;;5053385;28;20504;-77
2022/05/19 06:30:12;;;;;;;22.95;15.38;;;23.50;96.90;;;;;;5053329;28;20040;-77
2022/05/19 06:32:39;;;;;;;20.42;15.35;;;23.20;94.40;;;;;;5053483;28;20041;-78
2022/05/19 06:35:06;;;;;;;21.67;14.85;;;22.80;95.00;;;;;;5053261;28;20128;-78
2022/05/19 06:37:32;;;;;;;20.08;14.30;;;22.70;95.70;;;;;;5053079;28;20090;-77
2022/05/19 06:39:58;;;;;;;23.73;14.88;;;22.90;95.80;;;;;;5053318;28;20392;-77
2022/05/19 06:42:23;;;;;;;19.27;13.68;;;23.50;90.80;;;;;;5053330;28;20119;-78
2022/05/19 06:44:50;;;;;;;20.45;14.15;;;23.70;87.60;;;;;;5053059;28;20087;-77
2022/05/19 06:47:16;;;;;;;21.17;13.55;;;24.30;85.30;;;;;;5053210;28;20045;-77
2022/05/19 06:49:43;;;;;;;21.73;14.85;;;24.60;75.60;;;;;;5052878;28;20124;-78
2022/05/19 06:52:14;;;;;;;19.38;12.98;;;24.80;75.50;;;;;;5052994;28;20089;-77
2022/05/19 06:54:44;;;;;;;16.90;13.38;;;24.90;67.50;;;;;;5052894;28;20033;-78
2022/05/19 06:57:10;;;;;;;21.45;14.80;;;24.30;70.70;;;;;;5053262;28;20045;-77
2022/05/19 06:59:36;;;;;;;20.63;14.60;;;23.70;76.70;;;;;;5052580;28;20048;-77
2022/05/19 07:02:03;;;;;;;21.08;15.05;;;23.40;79.70;;;;;;5053516;28;20120;-77
2022/05/19 07:04:29;;;;;;;19.30;14.82;;;22.80;87.20;;;;;;5053241;28;20426;-77
2022/05/19 07:06:54;;;;;;;25.35;15.77;;;22.10;92.90;;;;;;5051817;28;20119;-77
2022/05/19 07:09:20;;;;;;;26.00;16.20;;;21.70;98.40;;;;;;5052811;28;20132;-77
2022/05/19 07:11:45;;;;;;;23.20;16.08;;;22.00;99.90;;;;;;5051528;28;20052;-77
2022/05/19 07:14:12;;;;;;;23.35;15.23;;;21.50;99.90;;;;;;5051974;28;20052;-77
2022/05/19 07:16:37;;;;;;;40.40;18.92;;;21.40;99.90;;;;;;5053339;28;20504;-75
2022/05/19 07:21:48;;;;;;;25.13;15.93;;;21.00;99.90;;;;;;5053211;28;20051;-76
2022/05/19 07:24:16;;;;;;;28.70;15.35;;;20.90;99.90;;;;;;5053090;28;20045;-76
2022/05/19 07:26:49;;;;;;;24.35;16.70;;;20.80;99.90;;;;;;5051795;28;20052;-76
2022/05/19 07:29:15;;;;;;;26.48;17.10;;;20.70;99.90;;;;;;5053033;28;20167;-76
2022/05/19 07:31:41;;;;;;;25.88;16.98;;;20.40;99.90;;;;;;5052242;28;20094;-76
2022/05/19 07:34:08;;;;;;;27.58;18.25;;;20.20;99.90;;;;;;5051262;28;20056;-76
2022/05/19 07:36:34;;;;;;;24.08;16.95;;;20.10;99.90;;;;;;5049132;28;20469;-76
2022/05/19 07:39:00;;;;;;;30.17;20.63;;;20.00;99.90;;;;;;5049518;28;20057;-76
2022/05/19 07:41:28;;;;;;;29.50;19.15;;;19.80;99.90;;;;;;5049190;28;20084;-76
2022/05/19 07:43:53;;;;;;;29.83;20.40;;;19.70;99.90;;;;;;5049290;28;20041;-76
2022/05/19 07:46:19;;;;;;;30.60;20.30;;;19.70;99.90;;;;;;5049303;28;20041;-76
2022/05/19 07:48:45;;;;;;;24.73;18.63;;;19.70;99.90;;;;;;5049334;28;20041;-76
2022/05/19 07:51:11;;;;;;;28.40;19.85;;;19.70;99.90;;;;;;5055980;28;20420;-76
2022/05/19 07:53:37;;;;;;;26.98;20.65;;;19.60;99.90;;;;;;5061515;28;20102;-76
2022/05/19 07:56:03;;;;;;;26.90;18.60;;;19.50;99.90;;;;;;5055644;28;20048;-76
2022/05/19 07:58:29;;;;;;;28.65;18.00;;;19.30;99.90;;;;;;5055918;28;20059;-76
2022/05/19 08:00:57;;;;;;;25.23;19.00;;;19.10;99.90;;;;;;5055362;28;20505;-76
2022/05/19 08:03:24;;;;;;;28.35;19.27;;;18.90;99.90;;;;;;5055839;28;20317;-76
2022/05/19 08:05:50;;;;;;;26.02;19.35;;;18.80;99.90;;;;;;5056057;28;20405;-76
2022/05/19 08:08:16;;;;;;;24.50;17.15;;;18.90;99.90;;;;;;5055926;28;20048;-76
2022/05/19 08:10:41;;;;;;;33.85;20.15;;;18.90;99.90;;;;;;5055534;28;20037;-76
2022/05/19 08:15:51;;;;;;;23.88;18.50;;;19.20;99.90;;;;;;5055648;28;20084;-76
2022/05/19 08:18:24;;;;;;;26.83;18.40;;;19.50;99.90;;;;;;5055869;28;20075;-76
2022/05/19 08:20:53;;;;;;;24.08;17.65;;;19.50;99.90;;;;;;5055428;28;20033;-76
2022/05/19 08:23:27;;;;;;;25.30;18.13;;;19.70;99.90;;;;;;5055515;28;20055;-76
2022/05/19 08:25:54;;;;;;;22.43;16.90;;;20.10;99.90;;;;;;5056071;28;20048;-76
2022/05/19 08:28:20;;;;;;;25.20;18.02;;;20.30;99.90;;;;;;5055789;28;20033;-77
2022/05/19 08:30:48;;;;;;;22.45;17.77;;;20.30;99.90;;;;;;5055556;28;20087;-76
2022/05/19 08:33:16;;;;;;;23.02;17.83;;;20.40;99.90;;;;;;5055446;28;20521;-76
2022/05/19 08:35:41;;;;;;;21.50;15.98;;;20.40;99.90;;;;;;5055592;28;20077;-76
2022/05/19 08:38:07;;;;;;;26.80;16.13;;;20.50;99.90;;;;;;5055267;28;20114;-76
2022/05/19 08:40:37;;;;;;;21.48;14.88;;;20.50;99.90;;;;;;5055484;28;20041;-76
2022/05/19 08:43:03;;;;;;;25.17;16.88;;;20.60;99.90;;;;;;5055465;28;20063;-76
2022/05/19 08:45:35;;;;;;;21.10;17.00;;;20.70;99.90;;;;;;5057899;28;20048;-76
2022/05/19 08:48:12;;;;;;;19.02;14.45;;;20.80;99.90;;;;;;5066123;28;20086;-76
2022/05/19 08:50:44;;;;;;;29.23;14.68;;;21.00;99.90;;;;;;5065964;28;20044;-76
2022/05/19 08:53:12;;;;;;;20.95;14.77;;;21.00;99.90;;;;;;5056240;28;20476;-76
2022/05/19 08:55:40;;;;;;;20.95;14.57;;;21.10;99.90;;;;;;5061218;28;20048;-76
2022/05/19 08:58:30;;;;;;;22.20;15.20;;;21.20;99.90;;;;;;5059511;28;20353;-76
2022/05/19 09:01:04;;;;;;;20.08;12.82;;;21.40;99.90;;;;;;5054989;28;20392;-76
2022/05/19 09:03:42;;;;;;;25.10;15.30;;;21.50;99.90;;;;;;5052052;28;20437;-76
2022/05/19 09:06:37;;;;;;;20.90;14.82;;;21.70;99.90;;;;;;5060001;28;20041;-76
2022/05/19 09:09:26;;;;;;;17.70;14.17;;;21.70;99.90;;;;;;5052363;28;20037;-76
2022/05/19 09:12:05;;;;;;;21.15;14.48;;;22.20;99.90;;;;;;5052270;28;20045;-76
2022/05/19 09:14:32;;;;;;;20.55;14.02;;;22.30;99.90;;;;;;5052068;28;20045;-76
2022/05/19 09:17:05;;;;;;;20.75;13.27;;;22.00;99.90;;;;;;5049663;28;20037;-76
2022/05/19 09:19:52;;;;;;;17.77;13.65;;;22.30;99.90;;;;;;5050125;28;20076;-76
2022/05/19 09:22:24;;;;;;;20.05;14.18;;;22.50;99.90;;;;;;5050315;28;20079;-76
2022/05/19 09:24:52;;;;;;;17.15;12.88;;;23.10;99.90;;;;;;5049953;28;20345;-77
2022/05/19 09:27:19;;;;;;;17.15;13.02;;;23.40;99.90;;;;;;5050484;28;20491;-76
2022/05/19 09:29:51;;;;;;;15.02;10.27;;;23.40;99.90;;;;;;5049729;28;20044;-76
2022/05/19 09:32:22;;;;;;;17.58;13.88;;;24.50;99.90;;;;;;5049024;28;20482;-76
2022/05/19 09:34:51;;;;;;;19.55;13.35;;;23.50;99.10;;;;;;5050108;28;20037;-76
2022/05/19 09:37:36;;;;;;;20.52;13.48;;;23.40;99.90;;;;;;5050449;28;20047;-76
2022/05/19 09:40:11;;;;;;;14.52;12.23;;;23.80;99.70;;;;;;5050234;28;20163;-76
2022/05/19 09:42:51;;;;;;;19.13;12.23;;;24.40;91.40;;;;;;5049918;28;20079;-77
2022/05/19 09:45:20;;;;;;;17.52;11.75;;;25.00;82.60;;;;;;5048536;28;20053;-77
2022/05/19 09:47:53;;;;;;;14.10;10.48;;;24.90;74.10;;;;;;5050101;28;20291;-77
2022/05/19 09:50:24;;;;;;;13.95;10.25;;;25.40;79.40;;;;;;5050635;28;20548;-77
2022/05/19 09:52:50;;;;;;;14.43;9.68;;;25.80;61.40;;;;;;5050481;28;20049;-77
2022/05/19 09:55:23;;;;;;;13.93;9.32;;;25.40;62.00;;;;;;5050135;28;20086;-77
2022/05/19 09:57:53;;;;;;;13.75;9.45;;;25.20;54.60;;;;;;5050032;28;20045;-77
2022/05/19 10:00:25;;;;;;;14.50;10.00;;;25.00;54.30;;;;;;5049770;28;20060;-77
2022/05/19 10:02:55;;;;;;;13.52;10.38;;;25.30;57.40;;;;;;5050092;28;20052;-77
2022/05/19 10:05:31;;;;;;;12.52;9.30;;;25.20;57.30;;;;;;5049943;28;20080;-77
2022/05/19 10:08:05;;;;;;;15.13;9.40;;;25.50;55.70;;;;;;5048600;28;20044;-76
2022/05/19 10:10:35;;;;;;;11.73;8.18;;;25.50;57.90;;;;;;5049709;28;20513;-76
2022/05/19 10:13:09;;;;;;;11.88;8.77;;;25.90;48.50;;;;;;5050143;28;20554;-76
2022/05/19 10:15:49;;;;;;;13.15;9.68;;;25.90;44.30;;;;;;5049670;28;20045;-76
2022/05/19 10:18:37;;;;;;;12.80;9.43;;;25.90;42.00;;;;;;5049888;28;20055;-76
2022/05/19 10:21:31;;;;;;;11.82;9.13;;;25.70;44.20;;;;;;5042395;28;20127;-76
2022/05/19 10:24:12;;;;;;;11.40;9.88;;;26.00;38.80;;;;;;5045627;28;20045;-76
2022/05/19 10:33:02;;;;;;;13.95;9.70;;;25.20;41.60;;;;;;5049736;28;20486;-76
2022/05/19 10:35:42;;;;;;;15.85;10.07;;;24.80;51.70;;;;;;5049116;28;20576;-76
2022/05/19 10:38:27;;;;;;;12.40;8.10;;;24.80;58.50;;;;;;5048993;28;20049;-76
2022/05/19 10:41:35;;;;;;;11.23;7.85;;;25.00;49.60;;;;;;5049504;28;20064;-76
2022/05/19 10:44:11;;;;;;;13.55;9.38;;;25.10;46.40;;;;;;5047238;28;20053;-76
2022/05/19 10:46:57;;;;;;;;;;;24.80;50.60;;;;;;5049915;28;20107;-76
2022/05/19 10:49:35;;;;;;;14.15;9.90;;;24.70;53.20;;;;;;5048560;28;19921;-75
2022/05/19 10:52:28;;;;;;;15.52;10.32;;;25.00;52.40;;;;;;5049427;28;20045;-76
2022/05/19 10:55:00;;;;;;;17.98;10.80;;;24.80;52.20;;;;;;5048772;28;20128;-76
2022/05/19 10:57:47;;;;;;;16.40;11.48;;;24.80;55.70;;;;;;5047135;28;20048;-76
2022/05/19 11:00:42;;;;;;;19.75;12.25;;;24.80;56.80;;;;;;5048420;28;20052;-76
2022/05/19 11:03:16;;;;;;;15.88;12.52;;;25.00;55.50;;;;;;5029572;28;20052;-76
2022/05/19 11:06:21;;;;;;;24.25;13.38;;;24.60;62.80;;;;;;5048832;28;20119;-76
2022/05/19 11:09:00;;;;;;;14.43;12.73;;;24.90;59.30;;;;;;5048673;28;20500;-76
2022/05/19 11:11:44;;;;;;;17.92;12.90;;;25.30;58.20;;;;;;5048697;28;20117;-76
2022/05/19 11:14:56;;;;;;;18.73;12.75;;;25.50;60.00;;;;;;5048594;28;20584;-76
2022/05/19 11:17:35;;;;;;;18.50;13.15;;;26.00;46.90;;;;;;5047024;28;20127;-76
2022/05/19 11:20:27;;;;;;;18.60;13.40;;;25.90;44.80;;;;;;5048573;28;20064;-76
2022/05/19 11:23:05;;;;;;;17.67;13.85;;;26.70;42.90;;;;;;5029683;28;20052;-76
2022/05/19 11:28:57;;;;;;;18.95;14.32;;;26.50;43.30;;;;;;5048412;28;20087;-76
2022/05/19 11:31:32;;;;;;;17.02;12.75;;;26.20;47.90;;;;;;5043279;28;20059;-76
2022/05/19 11:34:00;;;;;;;15.43;13.45;;;27.30;38.20;;;;;;5048282;28;20116;-76
2022/05/19 11:36:49;;;;;;;17.38;13.55;;;28.10;27.70;;;;;;5046897;28;20033;-76
2022/05/19 11:39:24;;;;;;;19.67;13.77;;;29.30;13.80;;;;;;5047913;28;20501;-76
2022/05/19 11:41:51;;;;;;;;;;;29.30;15.10;;;;;;5048363;28;20053;-76
2022/05/19 11:44:33;;;;;;;14.90;11.13;;;28.80;9.00;;;;;;5048196;28;20196;-76
2022/05/19 11:46:59;;;;;;;17.27;11.55;;;29.60;5.90;;;;;;5048224;28;20052;-77
2022/05/19 11:55:42;;;;;;;18.27;10.75;;;29.60;6.80;;;;;;5047697;28;20519;-76
2022/05/19 11:58:21;;;;;;;12.98;11.43;;;29.60;1.00;;;;;;5047928;28;20045;-76
2022/05/19 12:00:50;;;;;;;12.68;10.88;;;29.60;1.00;;;;;;5047359;28;20535;-76
2022/05/19 12:03:30;;;;;;;10.25;8.02;;;29.90;1.00;;;;;;5047948;28;20060;-76
2022/05/19 12:06:17;;;;;;;11.70;8.55;;;29.50;1.00;;;;;;5048166;28;20048;-76
2022/05/19 12:09:06;;;;;;;13.80;8.85;;;30.00;1.00;;;;;;5048174;28;20128;-77
2022/05/19 12:11:41;;;;;;;11.50;8.07;;;30.10;1.00;;;;;;5047781;28;20080;-76
2022/05/19 12:14:15;;;;;;;11.52;8.68;;;29.70;1.00;;;;;;5048181;28;20636;-76
2022/05/19 12:16:59;;;;;;;11.07;7.63;;;29.70;1.00;;;;;;5050973;28;20124;-77
2022/05/19 12:19:47;;;;;;;10.35;6.95;;;29.70;1.00;;;;;;5051307;28;20133;-76
2022/05/19 12:22:36;;;;;;;10.27;7.07;;;29.30;1.00;;;;;;5051594;28;20115;-77
2022/05/19 12:25:07;;;;;;;9.60;6.85;;;28.50;1.00;;;;;;5051427;28;20106;-76
2022/05/19 12:27:38;;;;;;;10.68;7.13;;;28.80;1.00;;;;;;5051714;28;20128;-77
2022/05/19 12:33:13;;;;;;;10.00;6.53;;;28.70;1.00;;;;;;5051462;28;20057;-76
2022/05/19 12:35:40;;;;;;;11.93;6.68;;;28.70;1.00;;;;;;5051445;28;20132;-76
2022/05/19 12:38:30;;;;;;;9.43;6.70;;;28.60;1.00;;;;;;5053025;28;20045;-76
2022/05/19 12:40:59;;;;;;;9.73;6.30;;;28.50;1.00;;;;;;5055616;28;20045;-76
2022/05/19 12:43:42;;;;;;;8.95;6.30;;;28.10;1.00;;;;;;5055135;28;20041;-76
2022/05/19 12:46:31;;;;;;;8.55;6.38;;;27.80;1.00;;;;;;5055886;28;20076;-76
2022/05/19 12:49:23;;;;;;;13.38;6.05;;;27.50;1.00;;;;;;5055934;28;20539;-76
2022/05/19 12:52:00;;;;;;;14.02;5.80;;;27.20;1.00;;;;;;5056081;28;20128;-76
2022/05/19 12:54:30;;;;;;;8.32;5.20;;;26.90;7.40;;;;;;5055823;28;20090;-76
2022/05/19 12:57:12;;;;;;;8.07;5.90;;;26.70;8.60;;;;;;5055973;28;20048;-76
2022/05/19 12:59:51;;;;;;;11.48;5.53;;;26.70;8.10;;;;;;5055273;28;20041;-76
2022/05/19 13:02:30;;;;;;;10.55;5.65;;;26.30;10.30;;;;;;5055834;28;20106;-76
2022/05/19 13:05:04;;;;;;;10.65;5.07;;;26.10;14.00;;;;;;5068160;28;20044;-76
2022/05/19 13:07:46;;;;;;;15.25;6.10;;;25.80;20.00;;;;;;5075642;28;20041;-76
2022/05/19 13:10:22;;;;;;;21.05;5.50;;;25.20;47.90;;;;;;5075392;28;20473;-77